Time;durP1;ratioP1;P1;durP2;ratioP2;P2;SDS_P1;SDS_P2;PMS_P1;PMS_P2;Temp;Humidity;BMP_temperature;BMP_pressure;BME280_temperature;BME280_humidity;BME280_pressure;Samples;Min_cycle;Max_cycle;Signal;HPM_P1;HPM_P2
2021/09/07 00:00:06;;;;;;;7.38;6.15;;;;;;;18.42;58.14;97923.53;4897637;29;20067;-77
2021/09/07 00:02:31;;;;;;;7.13;6.25;;;;;;;18.42;57.99;97926.19;4882394;29;20048;-77
2021/09/07 00:04:57;;;;;;;8.63;6.30;;;;;;;18.37;58.36;97921.75;4877689;29;20357;-77
2021/09/07 00:07:24;;;;;;;7.15;6.10;;;;;;;18.30;58.77;97919.44;4915180;29;20066;-78
2021/09/07 00:09:51;;;;;;;7.57;5.75;;;;;;;18.33;58.69;97916.25;4898596;29;20054;-77
2021/09/07 00:12:17;;;;;;;7.00;6.10;;;;;;;18.33;58.72;97925.97;4916108;29;20119;-78
2021/09/07 00:14:42;;;;;;;7.03;6.30;;;;;;;18.33;58.77;97920.72;4932719;29;20596;-78
2021/09/07 00:17:08;;;;;;;7.82;6.38;;;;;;;18.27;58.88;97919.19;4918049;29;20558;-77
2021/09/07 00:19:33;;;;;;;7.03;6.07;;;;;;;18.20;59.07;97905.53;4912965;29;20044;-78
2021/09/07 00:21:58;;;;;;;6.88;5.80;;;;;;;18.22;58.80;97914.75;4903196;29;20070;-77
2021/09/07 00:24:24;;;;;;;7.53;6.32;;;;;;;18.21;59.02;97918.44;4913635;29;20055;-78
2021/09/07 00:26:49;;;;;;;8.68;6.68;;;;;;;18.15;59.21;97920.31;4915175;29;20051;-78
2021/09/07 00:29:15;;;;;;;7.20;5.88;;;;;;;18.08;59.64;97911.94;4908994;29;20027;-77
2021/09/07 00:31:40;;;;;;;7.53;6.70;;;;;;;18.12;59.56;97918.22;4883150;29;20040;-77
2021/09/07 00:34:05;;;;;;;7.68;6.30;;;;;;;18.08;59.41;97914.59;4932732;29;20479;-77
2021/09/07 00:36:31;;;;;;;7.45;6.30;;;;;;;17.98;59.81;97898.06;4916327;29;20464;-77
2021/09/07 00:38:56;;;;;;;7.75;6.53;;;;;;;17.94;59.97;97903.88;4916701;29;20126;-77
2021/09/07 00:41:21;;;;;;;7.68;6.28;;;;;;;17.93;60.04;97909.41;4901023;29;20050;-77
2021/09/07 00:43:47;;;;;;;10.70;7.13;;;;;;;17.89;60.28;97895.19;4899098;29;20040;-78
2021/09/07 00:46:12;;;;;;;7.90;5.88;;;;;;;17.87;60.14;97906.03;4915247;29;20110;-77
2021/09/07 00:48:38;;;;;;;8.00;6.55;;;;;;;17.84;59.69;97908.38;4912006;29;20031;-77
2021/09/07 00:51:03;;;;;;;7.25;5.90;;;;;;;17.86;60.20;97914.19;4931753;29;20507;-78
2021/09/07 00:53:29;;;;;;;8.30;6.55;;;;;;;17.84;60.29;97913.66;4916362;29;20066;-78
2021/09/07 00:55:57;;;;;;;8.60;6.70;;;;;;;17.75;60.80;97911.63;4932933;29;20019;-78
2021/09/07 00:58:24;;;;;;;8.35;6.47;;;;;;;17.70;60.58;97898.47;4924413;29;20036;-78
2021/09/07 01:00:50;;;;;;;8.55;6.72;;;;;;;17.74;60.34;97898.72;4932044;29;20035;-78
2021/09/07 01:03:15;;;;;;;8.50;6.20;;;;;;;17.77;60.59;97904.22;4924493;23;20043;-81
2021/09/07 01:05:41;;;;;;;8.07;6.82;;;;;;;17.73;60.39;97907.66;4933555;29;20042;-82
2021/09/07 01:08:07;;;;;;;8.52;6.35;;;;;;;17.67;60.84;97899.00;4904972;29;20039;-82
2021/09/07 01:10:32;;;;;;;8.48;6.47;;;;;;;17.68;60.73;97897.16;4915548;29;20032;-82
2021/09/07 01:12:57;;;;;;;7.80;6.53;;;;;;;17.65;60.72;97895.88;4924892;29;20063;-82
2021/09/07 01:15:23;;;;;;;8.30;6.80;;;;;;;17.65;61.03;97895.88;4897108;29;20044;-82
2021/09/07 01:17:48;;;;;;;7.82;6.90;;;;;;;17.64;60.98;97891.66;4929176;29;20439;-82
2021/09/07 01:20:13;;;;;;;8.15;6.15;;;;;;;17.70;60.97;97893.22;4918260;29;20405;-82
2021/09/07 01:22:39;;;;;;;8.60;6.68;;;;;;;17.67;60.65;97892.97;4949711;29;20445;-82
2021/09/07 01:25:05;;;;;;;6.40;5.80;;;;;;;17.67;60.80;97887.69;4948639;29;20032;-82
2021/09/07 01:27:30;;;;;;;7.65;6.28;;;;;;;17.65;61.02;97879.25;4924991;29;20024;-82
2021/09/07 01:29:56;;;;;;;8.45;6.80;;;;;;;17.63;60.99;97884.00;4915214;29;20036;-82
2021/09/07 01:32:21;;;;;;;9.43;6.82;;;;;;;17.57;61.24;97878.78;4899443;29;20043;-82
2021/09/07 01:34:47;;;;;;;9.15;6.47;;;;;;;17.61;60.82;97884.28;4920968;29;20474;-82
2021/09/07 01:37:13;;;;;;;8.75;6.97;;;;;;;17.59;61.36;97881.16;4933383;29;20053;-82
2021/09/07 01:39:39;;;;;;;7.72;6.68;;;;;;;17.61;61.24;97886.91;4933484;29;20090;-82
2021/09/07 01:42:05;;;;;;;7.88;6.68;;;;;;;17.58;61.05;97892.72;4916238;29;20047;-82
2021/09/07 01:44:32;;;;;;;10.82;6.93;;;;;;;17.51;61.16;97881.72;4917864;29;20039;-82
2021/09/07 01:46:58;;;;;;;8.10;6.63;;;;;;;17.51;61.65;97881.72;4950322;29;20035;-82
2021/09/07 01:49:23;;;;;;;10.27;6.47;;;;;;;17.46;61.85;97887.81;4934116;28;20037;-82
2021/09/07 01:51:48;;;;;;;7.35;6.55;;;;;;;17.44;62.06;97878.59;4937361;28;20135;-82
2021/09/07 01:54:16;;;;;;;8.90;6.93;;;;;;;17.46;62.24;97887.00;4926274;29;20051;-82
2021/09/07 01:56:42;;;;;;;8.80;6.57;;;;;;;17.45;62.24;97882.81;4899178;29;20032;-82
2021/09/07 01:59:09;;;;;;;7.70;6.32;;;;;;;17.45;62.11;97885.44;4904723;29;20493;-82
2021/09/07 02:01:35;;;;;;;7.22;6.30;;;;;;;17.44;62.31;97875.97;4918112;29;20438;-82
2021/09/07 02:04:00;;;;;;;8.63;6.40;;;;;;;17.44;62.10;97875.97;4933586;29;20029;-82
2021/09/07 02:06:25;;;;;;;7.88;6.30;;;;;;;17.40;62.11;97878.34;4918256;29;20483;-82
2021/09/07 02:08:51;;;;;;;7.10;6.40;;;;;;;17.40;62.38;97873.09;4949865;29;20042;-82
2021/09/07 02:11:17;;;;;;;7.95;6.53;;;;;;;17.38;62.34;97881.25;4947906;29;20031;-82
2021/09/07 02:13:42;;;;;;;8.68;7.13;;;;;;;17.42;62.05;97887.53;4914760;29;20032;-82
2021/09/07 02:16:08;;;;;;;6.90;6.20;;;;;;;17.38;62.63;97885.75;4940480;29;20050;-82
2021/09/07 02:18:33;;;;;;;7.35;6.57;;;;;;;17.33;62.67;97878.66;4914837;29;20036;-82
2021/09/07 02:20:59;;;;;;;7.30;6.50;;;;;;;17.32;62.50;97884.19;4917169;29;20534;-82
2021/09/07 02:23:24;;;;;;;11.20;7.00;;;;;;;17.25;62.46;97887.09;4949950;29;20035;-82
2021/09/07 02:25:50;;;;;;;8.25;6.45;;;;;;;17.18;62.34;97882.13;4933719;29;20517;-82
2021/09/07 02:28:15;;;;;;;8.52;6.18;;;;;;;17.20;62.51;97884.50;4949524;28;20035;-82
2021/09/07 02:30:40;;;;;;;7.45;6.38;;;;;;;17.19;62.92;97882.94;4916788;29;20074;-81
2021/09/07 02:33:08;;;;;;;7.85;6.75;;;;;;;17.17;62.84;97877.13;4949775;29;20409;-81
2021/09/07 02:35:34;;;;;;;7.88;6.72;;;;;;;17.22;62.95;97883.19;4933662;29;20035;-82
2021/09/07 02:38:03;;;;;;;9.38;7.10;;;;;;;17.19;62.68;97877.66;4899697;29;20378;-81
2021/09/07 02:40:28;;;;;;;8.57;6.93;;;;;;;17.23;62.73;97873.44;4879857;29;20070;-81
2021/09/07 02:42:54;;;;;;;9.82;7.10;;;;;;;17.22;63.03;97877.09;4884208;29;20082;-81
2021/09/07 02:45:19;;;;;;;8.10;7.10;;;;;;;17.19;63.30;97875.81;4899046;29;20028;-81
2021/09/07 02:47:45;;;;;;;8.85;7.47;;;;;;;17.19;63.22;97875.81;4909551;29;20119;-81
2021/09/07 02:50:14;;;;;;;9.88;7.38;;;;;;;17.13;62.78;97863.72;4898340;29;20391;-81
2021/09/07 02:52:39;;;;;;;9.90;7.55;;;;;;;17.19;62.78;97865.28;4927352;29;20541;-81
2021/09/07 02:55:07;;;;;;;8.45;7.40;;;;;;;17.23;62.93;97871.56;4883261;29;20055;-81
2021/09/07 02:57:32;;;;;;;10.52;7.53;;;;;;;17.27;62.69;97869.19;4898847;29;20031;-81
2021/09/07 02:59:57;;;;;;;9.60;6.57;;;;;;;17.26;63.07;97867.63;4929632;29;20157;-81
2021/09/07 03:02:24;;;;;;;10.80;7.80;;;;;;;17.34;62.73;97864.44;4911832;29;20036;-81
2021/09/07 03:04:50;;;;;;;9.02;7.15;;;;;;;17.38;63.34;97865.47;4917240;29;20357;-82
2021/09/07 03:07:18;;;;;;;9.95;7.18;;;;;;;17.40;62.95;97867.81;4933597;29;20038;-82
2021/09/07 03:09:44;;;;;;;8.88;6.82;;;;;;;17.44;63.09;97865.44;4905478;29;20123;-82
2021/09/07 03:12:10;;;;;;;11.55;8.07;;;;;;;17.46;62.78;97863.31;4914565;29;20530;-82
2021/09/07 03:14:35;;;;;;;8.90;8.00;;;;;;;17.36;63.37;97866.81;4895356;29;20399;-81
2021/09/07 03:17:00;;;;;;;9.05;7.20;;;;;;;17.34;63.08;97858.38;4926509;29;20087;-82
2021/09/07 03:19:26;;;;;;;9.27;7.47;;;;;;;17.47;62.94;97862.25;4914531;29;20069;-82
2021/09/07 03:21:51;;;;;;;8.75;7.40;;;;;;;17.57;62.73;97860.34;4910898;29;20102;-82
2021/09/07 03:24:17;;;;;;;9.90;7.50;;;;;;;17.63;62.56;97855.81;4923614;29;20427;-82
2021/09/07 03:26:42;;;;;;;10.32;7.50;;;;;;;17.64;63.08;97857.41;4917125;29;20215;-82
2021/09/07 03:29:08;;;;;;;9.18;7.47;;;;;;;17.64;62.90;97857.41;4948315;29;20056;-81
2021/09/07 03:31:33;;;;;;;8.98;6.93;;;;;;;17.69;62.57;97853.97;4933197;29;20074;-81
2021/09/07 03:33:59;;;;;;;9.30;7.22;;;;;;;17.69;62.70;97854.75;4917332;29;20027;-82
2021/09/07 03:36:31;;;;;;;9.43;7.53;;;;;;;17.66;62.91;97850.03;4927823;29;20063;-81
2021/09/07 03:38:57;;;;;;;8.70;7.25;;;;;;;17.64;62.65;97851.38;4910591;29;20072;-81
2021/09/07 03:41:22;;;;;;;8.75;7.00;;;;;;;17.62;62.53;97850.84;4915687;29;20028;-82
2021/09/07 03:43:47;;;;;;;11.00;7.93;;;;;;;17.59;62.71;97849.53;4913256;29;20467;-81
2021/09/07 03:46:13;;;;;;;9.68;7.63;;;;;;;17.58;62.54;97856.66;4886185;29;20039;-82
2021/09/07 03:48:39;;;;;;;11.77;8.15;;;;;;;17.57;62.76;97856.94;4914567;29;20040;-81
2021/09/07 03:51:05;;;;;;;9.40;7.78;;;;;;;17.55;63.00;97848.53;4900811;29;20159;-82
2021/09/07 03:53:31;;;;;;;9.63;7.30;;;;;;;17.56;62.90;97852.72;4933370;29;20107;-82
2021/09/07 03:55:57;;;;;;;9.35;7.10;;;;;;;17.57;62.82;97852.44;4933074;29;20039;-82
2021/09/07 03:58:23;;;;;;;9.45;7.40;;;;;;;17.50;63.09;97849.34;4917070;29;20475;-82
2021/09/07 04:00:48;;;;;;;9.30;7.28;;;;;;;17.41;63.05;97849.13;4924071;29;20082;-82
2021/09/07 04:03:15;;;;;;;10.88;8.70;;;;;;;17.30;63.45;97855.50;4926223;29;20023;-82
2021/09/07 04:05:42;;;;;;;9.18;7.07;;;;;;;17.19;62.93;97861.88;4907452;29;20465;-82
2021/09/07 04:08:07;;;;;;;8.20;7.30;;;;;;;17.19;62.96;97846.88;4885472;29;20066;-82
2021/09/07 04:10:32;;;;;;;9.30;7.57;;;;;;;17.23;63.24;97852.38;4912434;29;20066;-82
2021/09/07 04:12:58;;;;;;;9.05;7.28;;;;;;;17.24;63.40;97853.97;4928366;29;20051;-82
2021/09/07 04:15:23;;;;;;;11.63;7.97;;;;;;;17.26;63.46;97851.06;4915452;29;20030;-82
2021/09/07 04:17:49;;;;;;;9.90;8.10;;;;;;;17.29;63.09;97842.59;4919845;29;20286;-82
2021/09/07 04:20:14;;;;;;;9.95;7.78;;;;;;;17.33;63.08;97841.00;4919712;29;20471;-82
2021/09/07 04:22:39;;;;;;;9.50;8.15;;;;;;;17.39;63.11;97839.91;4951581;29;20387;-81
2021/09/07 04:25:05;;;;;;;10.55;7.30;;;;;;;17.40;63.00;97842.28;4935985;29;20027;-82
2021/09/07 04:27:31;;;;;;;10.18;7.80;;;;;;;17.40;62.68;97837.00;4939962;29;20567;-82
2021/09/07 04:29:56;;;;;;;8.70;7.40;;;;;;;17.33;62.46;97841.78;4923034;29;20131;-82
2021/09/07 04:32:24;;;;;;;9.45;7.35;;;;;;;17.25;62.08;97844.22;4916783;29;20497;-82
2021/09/07 04:34:49;;;;;;;9.00;7.20;;;;;;;17.11;62.45;97836.13;4948099;29;20534;-82
2021/09/07 04:37:14;;;;;;;8.40;6.95;;;;;;;17.07;62.77;97842.97;4898871;29;20298;-82
2021/09/07 04:39:47;;;;;;;9.00;7.30;;;;;;;17.02;63.43;97847.19;4923337;29;20387;-82
2021/09/07 04:42:13;;;;;;;12.98;7.22;;;;;;;16.96;64.09;97837.75;4921277;29;20086;-82
2021/09/07 04:44:38;;;;;;;9.75;8.02;;;;;;;16.92;64.55;97847.25;4914802;29;20435;-82
2021/09/07 04:47:03;;;;;;;11.18;8.02;;;;;;;16.78;63.91;97843.59;4909410;29;20032;-82
2021/09/07 04:49:29;;;;;;;10.20;7.93;;;;;;;16.73;63.88;97849.63;4918187;29;20510;-82
2021/09/07 04:51:54;;;;;;;9.07;7.30;;;;;;;16.75;63.72;97850.16;4899809;29;20519;-82
2021/09/07 04:54:19;;;;;;;10.25;8.02;;;;;;;16.82;63.81;97855.91;4916081;29;20044;-82
2021/09/07 04:56:45;;;;;;;10.82;7.85;;;;;;;16.79;64.02;97851.22;4899861;29;20091;-81
2021/09/07 04:59:10;;;;;;;9.80;7.97;;;;;;;16.82;64.12;97852.50;4899060;29;20050;-82
2021/09/07 05:01:36;;;;;;;8.50;7.45;;;;;;;16.87;64.24;97849.09;4925398;29;20076;-82
2021/09/07 05:04:01;;;;;;;11.00;8.75;;;;;;;16.91;64.34;97847.50;4898710;29;20044;-81
2021/09/07 05:06:26;;;;;;;11.10;8.73;;;;;;;16.97;64.52;97852.47;4914968;29;20502;-81
2021/09/07 05:08:52;;;;;;;12.15;8.30;;;;;;;17.04;64.96;97852.19;4930180;29;20725;-81
2021/09/07 05:11:17;;;;;;;9.27;7.95;;;;;;;17.02;64.67;97846.41;4930265;29;20082;-81
2021/09/07 05:13:42;;;;;;;10.63;8.52;;;;;;;17.09;64.81;97852.19;4899246;29;20083;-81
2021/09/07 05:16:08;;;;;;;10.40;8.23;;;;;;;17.15;64.81;97861.63;4912322;29;20040;-81
2021/09/07 05:18:33;;;;;;;11.90;8.77;;;;;;;17.19;64.78;97853.97;4915233;29;20035;-81
2021/09/07 05:20:59;;;;;;;13.80;8.82;;;;;;;17.28;64.51;97864.72;4898194;29;20060;-81
2021/09/07 05:23:24;;;;;;;11.00;7.97;;;;;;;17.36;64.30;97862.31;4899447;29;20039;-81
2021/09/07 05:25:49;;;;;;;12.02;8.27;;;;;;;17.46;63.95;97865.94;4895410;29;20079;-81
2021/09/07 05:28:15;;;;;;;10.05;8.07;;;;;;;17.57;64.06;97872.75;4911360;29;20519;-81
2021/09/07 05:30:40;;;;;;;11.45;8.95;;;;;;;17.69;63.63;97872.41;4940309;29;20483;-81
2021/09/07 05:33:06;;;;;;;11.02;7.95;;;;;;;17.71;63.43;97865.00;4931086;29;20039;-82
2021/09/07 05:35:32;;;;;;;12.55;8.63;;;;;;;17.82;63.36;97860.44;4915489;29;20352;-82
2021/09/07 05:37:57;;;;;;;12.45;8.90;;;;;;;17.90;63.28;97868.59;4933643;29;20418;-81
2021/09/07 05:40:23;;;;;;;11.90;8.95;;;;;;;17.96;62.99;97864.09;4934165;29;20038;-81
2021/09/07 05:42:48;;;;;;;11.32;8.50;;;;;;;18.03;62.76;97869.81;4934166;29;20138;-81
2021/09/07 05:45:16;;;;;;;9.13;8.00;;;;;;;18.09;62.57;97873.19;4900232;29;20119;-81
2021/09/07 05:47:41;;;;;;;10.38;8.15;;;;;;;18.23;62.58;97883.88;4900755;29;20023;-81
2021/09/07 05:50:08;;;;;;;8.82;7.38;;;;;;;18.30;62.54;97877.25;4930365;29;20042;-81
2021/09/07 05:52:33;;;;;;;9.75;7.90;;;;;;;18.39;62.71;97879.28;4915342;29;20044;-81
2021/09/07 05:54:59;;;;;;;11.90;8.18;;;;;;;18.42;62.30;97876.06;4908132;29;20450;-81
2021/09/07 05:57:24;;;;;;;10.00;7.65;;;;;;;18.44;62.04;97872.13;4899617;29;20086;-81
2021/09/07 05:59:51;;;;;;;12.85;7.95;;;;;;;18.51;62.05;97869.94;4930752;29;20031;-81
2021/09/07 06:02:16;;;;;;;9.93;7.80;;;;;;;18.60;61.95;97871.97;4915090;29;20118;-81
2021/09/07 06:04:41;;;;;;;11.20;8.32;;;;;;;18.71;61.46;97878.69;4930115;29;20127;-81
2021/09/07 06:07:07;;;;;;;10.75;8.32;;;;;;;18.78;61.91;97886.28;4914748;29;20023;-81
2021/09/07 06:09:32;;;;;;;10.73;8.10;;;;;;;18.86;61.34;97889.13;4923102;29;20028;-82
2021/09/07 06:11:57;;;;;;;10.00;7.70;;;;;;;18.85;61.68;97889.41;4915340;29;20689;-82
2021/09/07 06:14:23;;;;;;;11.48;8.00;;;;;;;18.93;61.28;97885.38;4930916;29;20415;-82
2021/09/07 06:16:48;;;;;;;11.82;9.23;;;;;;;19.01;60.75;97882.13;4898941;29;20028;-82
2021/09/07 06:19:14;;;;;;;11.80;8.23;;;;;;;19.08;60.65;97887.84;4913963;29;20481;-82
2021/09/07 06:21:39;;;;;;;11.63;8.23;;;;;;;19.18;60.52;97895.63;4904747;29;20036;-82
2021/09/07 06:24:05;;;;;;;15.45;9.32;;;;;;;19.22;61.34;97898.50;4880505;29;20497;-82
2021/09/07 06:26:31;;;;;;;10.57;8.73;;;;;;;19.23;61.32;97894.78;4895915;29;20484;-82
2021/09/07 06:28:57;;;;;;;11.70;8.70;;;;;;;19.31;61.06;97902.06;4864357;29;20071;-82
2021/09/07 06:31:22;;;;;;;10.73;8.30;;;;;;;19.32;60.67;97905.50;4880146;29;20135;-82
2021/09/07 06:33:48;;;;;;;12.20;9.05;;;;;;;19.33;60.74;97899.16;4895960;29;20028;-82
2021/09/07 06:36:13;;;;;;;11.52;9.38;;;;;;;19.39;60.13;97904.06;4895469;29;20028;-82
2021/09/07 06:38:39;;;;;;;10.02;8.48;;;;;;;19.45;60.19;97902.97;4911644;29;20055;-81
2021/09/07 06:41:07;;;;;;;11.57;8.27;;;;;;;19.64;59.37;97902.97;4883531;29;20028;-82
2021/09/07 06:43:33;;;;;;;10.65;7.88;;;;;;;19.77;59.08;97904.13;4899995;29;20554;-81
2021/09/07 06:45:58;;;;;;;10.80;8.45;;;;;;;19.92;59.30;97903.13;4914664;29;20538;-81
2021/09/07 06:48:23;;;;;;;10.90;8.45;;;;;;;20.06;58.99;97913.75;4921757;29;20159;-81
2021/09/07 06:50:49;;;;;;;11.43;8.38;;;;;;;20.17;58.59;97906.47;4915983;29;20126;-81
2021/09/07 06:53:14;;;;;;;11.82;8.25;;;;;;;20.23;58.29;97913.22;4914520;29;20055;-81
2021/09/07 06:55:40;;;;;;;10.82;8.23;;;;;;;20.25;58.55;97916.38;4898797;29;20520;-82
2021/09/07 06:58:05;;;;;;;10.63;8.50;;;;;;;20.32;58.94;97918.66;4914506;29;20031;-82
2021/09/07 07:00:31;;;;;;;13.73;8.73;;;;;;;20.33;58.83;97931.59;4882922;29;20031;-81
2021/09/07 07:02:56;;;;;;;11.00;8.35;;;;;;;20.36;58.85;97933.66;4914621;29;20043;-81
2021/09/07 07:05:24;;;;;;;9.88;7.97;;;;;;;20.35;58.85;97929.44;4914183;29;20119;-82
2021/09/07 07:07:50;;;;;;;10.68;7.93;;;;;;;20.52;58.56;97936.06;4945969;29;20045;-82
2021/09/07 07:10:15;;;;;;;9.23;7.63;;;;;;;20.54;58.67;97931.25;4913752;29;20471;-82
2021/09/07 07:12:41;;;;;;;10.88;8.75;;;;;;;20.58;58.56;97932.25;4914785;29;20031;-82
2021/09/07 07:15:07;;;;;;;10.60;8.48;;;;;;;20.67;58.69;97930.53;4895368;29;20032;-82
2021/09/07 07:17:32;;;;;;;12.27;8.70;;;;;;;20.71;58.54;97934.16;4883539;29;20032;-82
2021/09/07 07:20:00;;;;;;;11.15;7.72;;;;;;;20.70;58.10;97942.38;4914541;29;20059;-82
2021/09/07 07:22:26;;;;;;;10.85;8.20;;;;;;;20.84;57.63;97929.19;4899232;29;20103;-82
2021/09/07 07:24:52;;;;;;;11.45;8.18;;;;;;;20.84;57.82;97932.63;4898876;29;20472;-82
2021/09/07 07:27:18;;;;;;;9.80;7.90;;;;;;;20.88;57.87;97930.16;4901684;29;20058;-82
2021/09/07 07:29:43;;;;;;;10.65;8.55;;;;;;;20.88;57.29;97928.28;4917802;29;20059;-82
2021/09/07 07:32:08;;;;;;;10.48;9.05;;;;;;;20.89;57.42;97926.44;4918051;29;20043;-82
2021/09/07 07:34:34;;;;;;;11.80;8.68;;;;;;;20.93;57.61;97933.50;4917834;29;20494;-82
2021/09/07 07:37:01;;;;;;;10.55;8.70;;;;;;;21.00;56.87;97924.38;4901954;29;20355;-82
2021/09/07 07:39:27;;;;;;;11.13;9.25;;;;;;;21.05;57.01;97925.06;4900973;29;20046;-82
2021/09/07 07:41:53;;;;;;;11.40;8.90;;;;;;;21.11;56.81;97928.41;4914656;29;20035;-82
2021/09/07 07:44:18;;;;;;;10.63;8.88;;;;;;;21.12;56.93;97922.81;4888740;29;20118;-82
2021/09/07 07:46:44;;;;;;;10.25;8.30;;;;;;;21.13;56.70;97934.97;4917564;29;20036;-81
2021/09/07 07:49:09;;;;;;;11.27;8.52;;;;;;;21.19;57.19;97934.88;4916916;29;20067;-82
2021/09/07 07:51:35;;;;;;;12.32;8.45;;;;;;;21.27;56.65;97934.19;4912827;29;21068;-81
2021/09/07 07:54:01;;;;;;;15.18;9.60;;;;;;;21.35;56.48;97936.13;4916716;29;20039;-81
2021/09/07 07:56:26;;;;;;;12.70;9.45;;;;;;;21.38;57.50;97929.47;4895815;29;20040;-81
2021/09/07 07:58:52;;;;;;;11.85;9.07;;;;;;;21.46;56.95;97947.31;4901618;29;20040;-81
2021/09/07 08:01:18;;;;;;;12.52;9.30;;;;;;;21.54;56.77;97951.97;4867212;29;20028;-81
2021/09/07 08:03:46;;;;;;;10.45;8.63;;;;;;;21.53;57.00;97949.59;4882659;29;20404;-81
2021/09/07 08:06:12;;;;;;;9.95;8.13;;;;;;;21.62;57.09;97953.13;4898574;29;20515;-81
2021/09/07 08:08:37;;;;;;;11.65;8.48;;;;;;;21.64;56.53;97953.59;4897834;29;20038;-81
2021/09/07 08:11:03;;;;;;;10.35;8.82;;;;;;;21.66;56.45;97964.69;4899590;29;20082;-81
2021/09/07 08:13:28;;;;;;;11.38;8.52;;;;;;;21.73;56.70;97959.78;4913697;29;20027;-81
2021/09/07 08:15:53;;;;;;;11.45;8.98;;;;;;;21.72;56.15;97962.72;4912839;29;20052;-81
2021/09/07 08:18:19;;;;;;;9.60;7.93;;;;;;;21.84;55.96;97960.34;4929364;29;20040;-81
2021/09/07 08:20:44;;;;;;;12.45;9.15;;;;;;;21.85;55.47;97952.09;4928989;29;20506;-81
2021/09/07 08:23:10;;;;;;;10.82;8.30;;;;;;;21.98;55.69;97961.06;4897930;29;20431;-81
2021/09/07 08:25:35;;;;;;;12.15;8.70;;;;;;;22.02;54.98;97959.41;4913897;29;20047;-81
2021/09/07 08:28:00;;;;;;;11.48;9.55;;;;;;;22.09;55.12;97961.66;4913357;29;20052;-81
2021/09/07 08:30:26;;;;;;;10.98;8.43;;;;;;;22.11;54.99;97959.47;4914911;29;20040;-81
2021/09/07 08:32:51;;;;;;;9.90;7.68;;;;;;;22.17;54.54;97958.25;4897550;29;20032;-81
2021/09/07 08:35:17;;;;;;;10.77;8.25;;;;;;;22.30;54.63;97967.28;4897179;29;20032;-81
2021/09/07 08:37:43;;;;;;;11.05;8.63;;;;;;;22.40;54.82;97966.25;4915554;29;20047;-82
2021/09/07 08:40:10;;;;;;;10.63;8.27;;;;;;;22.39;54.05;97970.78;4886715;29;20184;-82
2021/09/07 08:42:36;;;;;;;11.23;8.40;;;;;;;22.50;54.26;97975.84;4928436;29;20490;-82
2021/09/07 08:45:06;;;;;;;11.27;9.50;;;;;;;22.58;54.26;97975.09;4884419;29;20179;-82
2021/09/07 08:47:32;;;;;;;10.85;8.43;;;;;;;22.69;53.89;97972.97;4915749;29;20252;-82
2021/09/07 08:49:57;;;;;;;9.93;8.55;;;;;;;22.82;53.74;97966.81;4886503;29;20393;-82
2021/09/07 08:52:24;;;;;;;10.57;8.57;;;;;;;22.95;53.28;97967.81;4884604;29;20035;-82
2021/09/07 08:54:50;;;;;;;11.13;9.20;;;;;;;23.27;52.97;97960.59;4916292;29;20067;-82
2021/09/07 08:57:16;;;;;;;10.68;8.88;;;;;;;23.49;52.09;97959.72;4916123;29;20114;-82
2021/09/07 08:59:41;;;;;;;8.65;7.65;;;;;;;23.65;51.10;97965.41;4915976;29;20043;-82
2021/09/07 09:02:17;;;;;;;10.02;7.90;;;;;;;23.83;51.68;97966.22;4900531;29;20027;-82
2021/09/07 09:04:47;;;;;;;10.43;9.18;;;;;;;23.93;50.73;97960.59;4931452;29;20098;-82
2021/09/07 09:07:28;;;;;;;8.57;7.68;;;;;;;24.08;50.30;97965.47;4931912;29;20118;-82
2021/09/07 09:09:55;;;;;;;11.55;7.85;;;;;;;24.36;50.13;97967.78;4930767;29;20036;-82
2021/09/07 09:12:36;;;;;;;11.05;8.45;;;;;;;24.53;49.78;97977.63;4900487;29;20035;-82
2021/09/07 09:15:13;;;;;;;8.85;7.82;;;;;;;24.77;48.90;97977.13;4896568;29;20087;-82
2021/09/07 09:17:38;;;;;;;9.88;8.70;;;;;;;25.21;48.04;97971.66;4881442;29;20028;-82
2021/09/07 09:20:14;;;;;;;9.15;7.18;;;;;;;25.20;47.37;97973.50;4896224;29;20055;-81
2021/09/07 09:22:39;;;;;;;8.77;7.88;;;;;;;25.42;47.04;97980.47;4900022;29;20043;-81
2021/09/07 09:25:31;;;;;;;8.70;7.20;;;;;;;25.23;46.75;97980.88;4915537;29;20031;-81
2021/09/07 09:27:56;;;;;;;9.13;7.55;;;;;;;25.50;46.09;97980.75;4900143;29;20097;-82
2021/09/07 09:30:37;;;;;;;9.00;8.02;;;;;;;25.35;45.85;97976.78;4899948;29;20028;-81
2021/09/07 09:33:03;;;;;;;9.68;7.75;;;;;;;25.93;45.49;97975.16;4915487;29;20466;-82
2021/09/07 09:35:29;;;;;;;10.13;7.63;;;;;;;25.86;45.17;97977.56;4900212;29;20115;-82
2021/09/07 09:38:01;;;;;;;8.93;7.80;;;;;;;25.90;45.95;97983.78;4898815;29;20461;-81
2021/09/07 09:40:28;;;;;;;8.90;7.40;;;;;;;25.95;44.70;97986.31;4912641;29;20047;-81
2021/09/07 09:42:54;;;;;;;8.15;7.35;;;;;;;26.15;45.30;97975.97;4898139;29;20487;-81
2021/09/07 09:45:28;;;;;;;8.20;7.40;;;;;;;26.17;44.88;97973.75;4897718;29;20038;-82
2021/09/07 09:47:55;;;;;;;8.02;7.20;;;;;;;26.53;44.75;97966.97;4902862;29;20032;-81
2021/09/07 09:50:21;;;;;;;8.65;7.82;;;;;;;26.40;44.19;97966.13;4883043;29;20458;-81
2021/09/07 09:52:48;;;;;;;7.97;6.97;;;;;;;26.41;43.94;97958.88;4914823;29;20134;-80
2021/09/07 09:55:15;;;;;;;8.80;7.38;;;;;;;26.65;43.59;97963.56;4898872;29;20066;-83
2021/09/07 09:57:41;;;;;;;9.52;7.70;;;;;;;27.01;43.34;97965.50;4914864;29;20035;-80
2021/09/07 10:00:09;;;;;;;10.20;7.95;;;;;;;26.88;43.40;97970.03;4914783;29;20043;-80
2021/09/07 10:02:34;;;;;;;9.52;7.80;;;;;;;26.96;43.84;97963.06;4931182;29;20027;-81
2021/09/07 10:05:00;;;;;;;8.60;7.68;;;;;;;27.27;43.86;97953.69;4914521;29;20039;-82
2021/09/07 10:07:26;;;;;;;8.07;7.07;;;;;;;27.57;42.25;97954.25;4899672;29;20047;-82
2021/09/07 10:09:52;;;;;;;11.27;7.93;;;;;;;27.56;42.33;97951.91;4914722;29;20513;-82
2021/09/07 10:12:45;;;;;;;7.65;6.95;;;;;;;27.71;42.93;97948.53;4899179;29;20024;-82
2021/09/07 10:15:35;;;;;;;8.05;7.03;;;;;;;27.98;41.78;97951.59;4915126;29;20127;-82
2021/09/07 10:18:32;;;;;;;7.07;6.38;;;;;;;27.73;39.72;97948.22;4886142;29;20028;-81
2021/09/07 10:23:54;;;;;;;7.68;6.85;;;;;;;28.35;40.56;97943.41;4881478;29;20028;-82
2021/09/07 10:26:42;;;;;;;7.38;6.43;;;;;;;28.38;39.28;97938.16;4898057;29;20123;-81
2021/09/07 10:29:11;;;;;;;7.60;6.85;;;;;;;28.50;38.39;97934.63;4931355;29;20051;-82
2021/09/07 10:31:42;;;;;;;6.95;6.18;;;;;;;28.57;39.40;97934.06;4915248;29;20486;-80
2021/09/07 10:34:08;;;;;;;8.35;6.47;;;;;;;28.77;38.70;97932.25;4914053;29;20039;-81
2021/09/07 10:36:55;;;;;;;8.27;6.32;;;;;;;28.41;38.08;97931.31;4884433;29;20537;-82
2021/09/07 10:39:30;;;;;;;7.22;6.22;;;;;;;28.85;37.06;97933.97;4929757;29;20407;-81
2021/09/07 10:41:56;;;;;;;7.28;6.57;;;;;;;28.89;36.76;97926.81;4899239;29;20442;-82
2021/09/07 10:44:24;;;;;;;7.22;6.53;;;;;;;28.76;37.62;97926.09;4899206;29;20023;-81
2021/09/07 10:46:56;;;;;;;7.38;6.53;;;;;;;28.81;38.37;97919.72;4911455;29;20047;-81
2021/09/07 10:49:34;;;;;;;6.97;6.38;;;;;;;28.73;38.09;97920.66;4902805;29;20032;-81
2021/09/07 10:52:09;;;;;;;7.22;6.53;;;;;;;28.65;37.41;97910.88;4935592;29;20465;-81
2021/09/07 10:54:44;;;;;;;7.28;6.57;;;;;;;28.69;37.02;97909.09;4918940;29;20024;-80
2021/09/07 10:57:09;;;;;;;;;;;;;;;28.39;37.50;97912.13;4903219;29;20380;-80
2021/09/07 10:59:51;;;;;;;6.47;5.90;;;;;;;28.77;36.13;97916.16;4918334;29;19914;-80
2021/09/07 11:02:34;;;;;;;7.25;6.55;;;;;;;29.25;36.27;97902.72;4887876;29;20071;-81
2021/09/07 11:05:06;;;;;;;6.97;6.28;;;;;;;29.32;36.46;97900.19;4887250;29;20107;-81
2021/09/07 11:07:46;;;;;;;9.00;6.75;;;;;;;29.22;35.88;97904.22;4918562;29;20098;-81
2021/09/07 11:10:14;;;;;;;7.43;6.75;;;;;;;29.54;36.10;97903.34;4917765;29;20499;-80
2021/09/07 11:12:49;;;;;;;8.20;6.53;;;;;;;29.58;35.88;97899.59;4918540;29;20040;-81
2021/09/07 11:15:14;;;;;;;7.07;6.38;;;;;;;29.54;35.88;97901.41;4918521;29;20119;-81
2021/09/07 11:17:55;;;;;;;7.07;6.38;;;;;;;29.54;36.96;97906.78;4949580;29;20036;-80
2021/09/07 11:20:22;;;;;;;7.22;6.53;;;;;;;29.94;36.10;97897.66;4933484;29;20032;-82
2021/09/07 11:22:48;;;;;;;7.68;6.72;;;;;;;30.10;35.96;97894.88;4934294;29;20068;-81
2021/09/07 11:25:20;;;;;;;7.68;6.93;;;;;;;29.96;35.40;97900.75;4902111;29;20058;-81
2021/09/07 11:27:48;;;;;;;6.78;6.20;;;;;;;30.54;34.87;97891.06;4918074;29;20028;-82
2021/09/07 11:30:20;;;;;;;8.05;6.65;;;;;;;30.44;34.58;97890.50;4932990;29;20127;-81